createdAt,value
2018-02-07T00:14:49.828Z,40.67
2018-02-07T00:17:17.668Z,36.80
2018-02-07T00:19:45.200Z,37.53
2018-02-07T00:22:14.624Z,45.40
2018-02-07T00:24:42.195Z,37.30
2018-02-07T00:27:09.729Z,36.63
2018-02-07T00:29:38.932Z,36.57
2018-02-07T00:32:06.509Z,37.73
2018-02-07T00:34:34.257Z,39.03
2018-02-07T00:37:01.797Z,37.97
2018-02-07T00:39:29.704Z,41.23
2018-02-07T00:41:57.225Z,39.00
2018-02-07T00:44:24.754Z,43.10
2018-02-07T00:46:52.307Z,37.93
2018-02-07T00:49:19.859Z,38.60
2018-02-07T00:51:47.692Z,35.10
2018-02-07T00:54:15.331Z,41.43
2018-02-07T00:56:42.897Z,41.30
2018-02-07T00:59:10.412Z,42.77
2018-02-07T01:01:38.095Z,36.27
2018-02-07T01:04:05.871Z,41.20
2018-02-07T01:06:33.407Z,36.27
2018-02-07T01:09:00.962Z,43.17
2018-02-07T01:11:28.496Z,38.77
2018-02-07T01:13:56.020Z,39.37
2018-02-07T01:16:23.568Z,40.73
2018-02-07T01:18:51.093Z,40.97
2018-02-07T01:21:18.632Z,41.87
2018-02-07T01:23:46.216Z,41.27
2018-02-07T01:26:13.966Z,41.13
2018-02-07T01:28:41.507Z,43.30
2018-02-07T01:31:09.096Z,39.30
2018-02-07T01:33:36.609Z,40.60
2018-02-07T01:36:04.126Z,43.23
2018-02-07T01:38:31.699Z,39.13
2018-02-07T01:40:59.221Z,43.13
2018-02-07T01:43:26.742Z,47.73
2018-02-07T01:45:54.324Z,40.80
2018-02-07T01:48:22.100Z,42.70
2018-02-07T01:50:49.636Z,37.63
2018-02-07T01:53:17.447Z,43.60
2018-02-07T01:55:45.287Z,44.13
2018-02-07T01:58:12.825Z,35.43
2018-02-07T02:00:40.377Z,39.50
2018-02-07T02:03:07.911Z,36.73
2018-02-07T02:05:35.460Z,36.20
2018-02-07T02:08:03.020Z,42.43
2018-02-07T02:10:30.569Z,39.43
2018-02-07T02:12:58.101Z,37.10
2018-02-07T02:15:25.660Z,35.00
2018-02-07T02:17:54.143Z,42.13
2018-02-07T02:20:21.687Z,36.60
2018-02-07T02:22:49.249Z,33.67
2018-02-07T02:25:16.783Z,34.80
2018-02-07T02:27:44.301Z,35.50
2018-02-07T02:30:11.976Z,31.03
2018-02-07T02:32:39.506Z,35.53
2018-02-07T02:35:07.373Z,34.37
2018-02-07T02:37:35.168Z,37.77
2018-02-07T02:40:02.729Z,37.07
2018-02-07T02:42:30.268Z,36.73
2018-02-07T02:44:57.848Z,37.23
2018-02-07T02:47:25.373Z,36.47
2018-02-07T02:49:52.908Z,36.17
2018-02-07T02:52:20.459Z,32.40
2018-02-07T02:54:47.985Z,33.83
2018-02-07T02:57:15.520Z,30.37
2018-02-07T02:59:43.093Z,29.87
2018-02-07T03:02:10.653Z,34.93
2018-02-07T03:04:38.191Z,37.55
2018-02-07T03:07:05.733Z,32.40
2018-02-07T03:09:33.301Z,29.93
2018-02-07T03:12:01.065Z,27.80
2018-02-07T03:14:28.596Z,32.53
2018-02-07T03:16:56.378Z,27.97
2018-02-07T03:19:23.896Z,32.53
2018-02-07T03:21:51.441Z,29.93
2018-02-07T03:24:19.011Z,30.67
2018-02-07T03:26:46.608Z,31.17
2018-02-07T03:29:14.162Z,33.67
2018-02-07T03:31:41.775Z,30.20
2018-02-07T03:34:09.334Z,30.73
2018-02-07T03:36:36.895Z,29.30
2018-02-07T03:39:04.474Z,32.90
2018-02-07T03:41:31.999Z,33.70
2018-02-07T03:43:59.852Z,35.70
2018-02-07T03:46:27.440Z,27.30
2018-02-07T03:48:55.459Z,32.37
2018-02-07T03:51:23.229Z,34.77
2018-02-07T03:53:50.803Z,30.77
2018-02-07T03:56:18.377Z,31.57
2018-02-07T03:58:46.593Z,32.30
2018-02-07T04:01:14.193Z,34.30
2018-02-07T04:03:41.716Z,32.57
2018-02-07T04:06:09.476Z,32.63
2018-02-07T04:08:37.038Z,32.27
2018-02-07T04:11:04.569Z,37.23
2018-02-07T04:13:32.110Z,31.63
2018-02-07T04:15:59.672Z,35.17
2018-02-07T04:18:27.188Z,35.77
2018-02-07T04:20:54.706Z,35.47
2018-02-07T04:23:22.292Z,38.00
2018-02-07T04:25:49.830Z,42.43
2018-02-07T04:28:18.544Z,38.83
2018-02-07T04:30:46.300Z,42.77
2018-02-07T04:33:13.833Z,44.77
2018-02-07T04:35:41.692Z,37.67
2018-02-07T04:38:09.864Z,42.90
2018-02-07T04:40:38.640Z,36.03
2018-02-07T04:43:06.413Z,29.10
2018-02-07T04:45:33.985Z,32.97
2018-02-07T04:48:01.565Z,32.70
2018-02-07T04:50:29.152Z,35.93
2018-02-07T04:52:56.740Z,34.10
2018-02-07T04:55:24.295Z,35.57
2018-02-07T04:57:51.834Z,34.25
2018-02-07T05:00:19.495Z,35.83
2018-02-07T05:02:47.090Z,37.20
2018-02-07T05:05:14.669Z,33.97
2018-02-07T05:07:42.223Z,33.47
2018-02-07T05:10:09.781Z,30.70
2018-02-07T05:12:37.564Z,39.33
2018-02-07T05:15:05.105Z,39.63
2018-02-07T05:17:32.629Z,36.93
2018-02-07T05:20:00.175Z,38.27
2018-02-07T05:22:27.747Z,35.77
2018-02-07T05:24:55.277Z,38.53
2018-02-07T05:27:22.832Z,37.87
2018-02-07T05:29:50.396Z,38.33
2018-02-07T05:32:17.951Z,36.27
2018-02-07T05:34:45.471Z,35.60
2018-02-07T05:37:12.999Z,38.37
2018-02-07T05:39:40.689Z,38.97
2018-02-07T05:42:08.235Z,40.03
2018-02-07T05:44:35.771Z,35.50
2018-02-07T05:47:03.323Z,39.38
2018-02-07T05:49:30.884Z,41.58
2018-02-07T05:51:58.412Z,41.93
2018-02-07T05:54:25.969Z,40.20
2018-02-07T05:56:53.572Z,46.95
2018-02-07T05:59:21.121Z,45.55
2018-02-07T06:01:48.690Z,46.33
2018-02-07T06:04:16.499Z,38.35
2018-02-07T06:06:44.116Z,43.87
2018-02-07T06:09:11.673Z,41.30
2018-02-07T06:11:39.217Z,42.33
2018-02-07T06:14:06.777Z,52.22
2018-02-07T06:16:34.356Z,51.20
2018-02-07T06:19:01.896Z,39.83
2018-02-07T06:21:29.421Z,39.47
2018-02-07T06:23:57.025Z,38.35
2018-02-07T06:26:24.542Z,38.30
2018-02-07T06:28:52.325Z,32.60
2018-02-07T06:31:19.900Z,41.13
2018-02-07T06:33:47.435Z,37.65
2018-02-07T06:36:14.965Z,41.15
2018-02-07T06:38:42.525Z,37.72
2018-02-07T06:41:10.051Z,42.60
2018-02-07T06:43:37.827Z,36.00
2018-02-07T06:46:05.402Z,41.63
2018-02-07T06:48:32.963Z,37.40
2018-02-07T06:51:00.516Z,40.67
2018-02-07T06:53:28.071Z,39.20
2018-02-07T06:55:55.601Z,32.53
2018-02-07T06:58:24.408Z,38.38
2018-02-07T07:01:07.440Z,42.08
2018-02-07T07:03:34.968Z,33.87
2018-02-07T07:06:02.664Z,39.20
2018-02-07T07:08:30.323Z,39.33
2018-02-07T07:10:57.846Z,43.17
2018-02-07T07:13:25.396Z,33.92
2018-02-07T07:15:52.959Z,33.33
2018-02-07T07:18:20.492Z,39.40
2018-02-07T07:20:48.028Z,32.00
2018-02-07T07:23:15.593Z,43.77
2018-02-07T07:25:43.156Z,40.90
2018-02-07T07:28:10.677Z,34.00
2018-02-07T07:30:39.312Z,31.20
2018-02-07T07:33:06.837Z,33.93
2018-02-07T07:35:34.377Z,27.03
2018-02-07T07:38:01.952Z,27.00
2018-02-07T07:40:29.473Z,29.60
2018-02-07T07:42:56.999Z,29.37
2018-02-07T07:45:24.604Z,30.10
2018-02-07T07:47:52.125Z,29.27
2018-02-07T07:50:19.649Z,33.00
2018-02-07T07:52:47.209Z,25.02
2018-02-07T07:55:14.756Z,31.07
2018-02-07T07:57:42.295Z,38.92
2018-02-07T08:00:09.981Z,29.07
2018-02-07T08:02:37.553Z,33.60
2018-02-07T08:05:05.128Z,35.83
2018-02-07T08:07:32.691Z,24.90
2018-02-07T08:10:00.219Z,24.37
2018-02-07T08:12:27.746Z,27.87
2018-02-07T08:14:55.306Z,25.03
2018-02-07T08:17:22.816Z,30.90
2018-02-07T08:19:50.350Z,27.40
2018-02-07T08:22:17.892Z,32.57
2018-02-07T08:24:45.418Z,28.93
2018-02-07T08:27:12.964Z,30.63
2018-02-07T08:29:40.551Z,24.83
2018-02-07T08:32:08.116Z,26.70
2018-02-07T08:34:35.668Z,28.97
2018-02-07T08:37:03.208Z,29.03
2018-02-07T08:39:30.882Z,33.03
2018-02-07T08:41:58.407Z,32.13
2018-02-07T08:44:25.929Z,32.00
2018-02-07T08:46:53.470Z,35.67
2018-02-07T08:49:21.004Z,25.93
2018-02-07T08:51:48.536Z,34.73
2018-02-07T08:54:16.102Z,29.97
2018-02-07T08:56:43.893Z,25.33
2018-02-07T08:59:11.418Z,30.10
2018-02-07T09:01:38.993Z,30.23
2018-02-07T09:04:06.527Z,30.23
2018-02-07T09:06:34.060Z,25.27
2018-02-07T09:09:01.617Z,29.97
2018-02-07T09:11:29.141Z,25.07
2018-02-07T09:13:56.676Z,27.93
2018-02-07T09:16:24.235Z,30.47
2018-02-07T09:18:51.777Z,20.17
2018-02-07T09:21:19.359Z,21.00
2018-02-07T09:23:46.901Z,25.50
2018-02-07T09:26:14.425Z,22.37
2018-02-07T09:28:41.936Z,19.87
2018-02-07T09:31:09.498Z,23.67
2018-02-07T09:33:37.035Z,20.43
2018-02-07T09:36:04.564Z,22.00
2018-02-07T09:38:32.124Z,26.37
2018-02-07T09:40:59.669Z,22.57
2018-02-07T09:43:27.181Z,20.40
2018-02-07T09:45:54.765Z,22.83
2018-02-07T09:48:22.307Z,20.47
2018-02-07T09:50:49.877Z,17.30
2018-02-07T09:53:17.465Z,17.37
2018-02-07T09:55:44.995Z,20.00
2018-02-07T09:58:12.522Z,22.83
2018-02-07T10:00:40.069Z,25.37
2018-02-07T10:03:07.604Z,18.50
2018-02-07T10:05:35.130Z,17.87
2018-02-07T10:08:02.680Z,22.80
2018-02-07T10:10:30.198Z,20.93
2018-02-07T10:12:57.725Z,19.93
2018-02-07T10:15:25.390Z,17.70
2018-02-07T10:17:52.922Z,20.63
2018-02-07T10:20:20.451Z,19.17
2018-02-07T10:22:48.011Z,18.97
2018-02-07T10:25:15.824Z,20.50
2018-02-07T10:27:43.320Z,14.43
2018-02-07T10:30:10.934Z,20.00
2018-02-07T10:32:38.461Z,26.47
2018-02-07T10:35:05.999Z,21.33
2018-02-07T10:37:33.554Z,20.60
2018-02-07T10:40:01.089Z,18.60
2018-02-07T10:42:28.621Z,17.77
2018-02-07T10:44:56.198Z,19.43
2018-02-07T10:47:23.727Z,21.77
2018-02-07T10:49:51.265Z,17.60
2018-02-07T10:52:18.822Z,18.63
2018-02-07T10:54:46.333Z,17.67
2018-02-07T10:57:13.878Z,15.90
2018-02-07T10:59:41.451Z,19.10
2018-02-07T11:02:09.221Z,18.60
2018-02-07T11:04:36.733Z,19.70
2018-02-07T11:07:04.304Z,18.47
2018-02-07T11:09:31.871Z,18.97
2018-02-07T11:11:59.387Z,17.40
2018-02-07T11:14:26.917Z,17.30
2018-02-07T11:16:54.472Z,19.57
2018-02-07T11:19:21.991Z,20.53
2018-02-07T11:21:49.521Z,19.50
2018-02-07T11:24:17.073Z,22.83
2018-02-07T11:26:44.849Z,22.70
2018-02-07T11:29:12.386Z,21.97
2018-02-07T11:31:40.223Z,21.27
2018-02-07T11:34:07.765Z,24.07
2018-02-07T11:36:35.346Z,19.80
2018-02-07T11:39:02.910Z,18.23
2018-02-07T11:41:30.467Z,19.17
2018-02-07T11:43:58.058Z,21.20
2018-02-07T11:46:25.876Z,19.27
2018-02-07T11:48:53.385Z,21.80
2018-02-07T11:51:20.915Z,22.00
2018-02-07T11:53:49.172Z,24.47
2018-02-07T11:56:16.744Z,20.10
2018-02-07T11:58:44.277Z,18.10
2018-02-07T12:01:11.957Z,17.33
2018-02-07T12:03:39.556Z,17.43
2018-02-07T12:06:07.355Z,20.50
2018-02-07T12:08:35.258Z,20.10
2018-02-07T12:11:03.020Z,17.23
2018-02-07T12:13:31.004Z,19.87
2018-02-07T12:15:58.593Z,17.47
2018-02-07T12:18:26.132Z,18.27
2018-02-07T12:20:53.719Z,21.37
2018-02-07T12:23:21.268Z,19.13
2018-02-07T12:25:48.869Z,19.90
2018-02-07T12:28:16.750Z,23.63
2018-02-07T12:30:44.588Z,21.43
2018-02-07T12:33:12.157Z,23.00
2018-02-07T12:35:39.685Z,22.57
2018-02-07T12:38:07.226Z,17.97
2018-02-07T12:40:34.758Z,19.83
2018-02-07T12:43:02.304Z,18.73
2018-02-07T12:45:29.873Z,19.33
2018-02-07T12:47:57.385Z,18.63
2018-02-07T12:50:24.931Z,19.70
2018-02-07T12:52:52.484Z,16.07
2018-02-07T12:55:20.011Z,15.97
2018-02-07T12:57:47.554Z,19.10
2018-02-07T13:00:15.131Z,21.63
2018-02-07T13:02:42.665Z,22.30
2018-02-07T13:05:10.224Z,21.53
2018-02-07T13:07:38.010Z,18.83
2018-02-07T13:10:05.525Z,18.23
2018-02-07T13:12:33.074Z,23.10
2018-02-07T13:15:01.767Z,22.00
2018-02-07T13:17:29.333Z,20.57
2018-02-07T13:19:56.902Z,23.83
2018-02-07T13:22:25.438Z,22.37
2018-02-07T13:24:52.983Z,23.30
2018-02-07T13:27:20.507Z,21.97
2018-02-07T13:29:48.055Z,16.90
2018-02-07T13:32:15.844Z,24.23
2018-02-07T13:34:43.375Z,20.10
2018-02-07T13:37:10.908Z,20.47
2018-02-07T13:39:38.463Z,25.93
2018-02-07T13:42:06.002Z,24.90
2018-02-07T13:44:33.513Z,21.80
2018-02-07T13:47:01.041Z,23.10
2018-02-07T13:49:28.604Z,20.37
2018-02-07T13:51:56.136Z,25.93
2018-02-07T13:54:23.702Z,19.03
2018-02-07T13:56:51.262Z,25.87
2018-02-07T13:59:18.805Z,19.60
2018-02-07T14:01:46.477Z,23.23
2018-02-07T14:04:14.001Z,21.93
2018-02-07T14:06:41.536Z,26.03
2018-02-07T14:09:09.095Z,21.37
2018-02-07T14:11:36.655Z,24.00
2018-02-07T14:14:04.195Z,16.43
2018-02-07T14:16:31.786Z,18.10
2018-02-07T14:18:59.359Z,21.43
2018-02-07T14:21:26.871Z,20.30
2018-02-07T14:23:54.470Z,16.90
2018-02-07T14:26:22.021Z,18.47
2018-02-07T14:28:49.556Z,22.05
2018-02-07T14:31:17.144Z,18.00
2018-02-07T14:33:44.904Z,18.47
2018-02-07T14:36:12.430Z,23.60
2018-02-07T14:38:40.048Z,14.20
2018-02-07T14:41:07.588Z,21.13
2018-02-07T14:43:36.096Z,20.10
2018-02-07T14:46:03.762Z,25.35
2018-02-07T14:48:31.322Z,28.12
2018-02-07T14:50:59.107Z,24.43
2018-02-07T14:53:26.694Z,22.27
2018-02-07T14:55:55.154Z,27.73
2018-02-07T14:58:22.674Z,20.25
2018-02-07T15:00:50.232Z,22.37
2018-02-07T15:03:17.757Z,22.75
2018-02-07T15:05:45.296Z,15.70
2018-02-07T15:08:12.869Z,27.08
2018-02-07T15:10:40.406Z,16.50
2018-02-07T15:13:07.960Z,21.05
2018-02-07T15:15:35.509Z,25.87
2018-02-07T15:18:03.286Z,19.03
2018-02-07T15:20:31.206Z,23.93
2018-02-07T15:22:58.772Z,19.70
2018-02-07T15:25:26.289Z,19.13
2018-02-07T15:27:54.050Z,22.40
2018-02-07T15:30:21.638Z,21.52
2018-02-07T15:32:49.172Z,27.67
2018-02-07T15:35:16.726Z,29.17
2018-02-07T15:37:45.551Z,23.10
2018-02-07T15:40:13.141Z,25.40
2018-02-07T15:42:40.674Z,28.77
2018-02-07T15:45:25.712Z,27.20
2018-02-07T15:47:53.238Z,21.43
2018-02-07T15:53:17.130Z,22.20
2018-02-07T15:55:47.317Z,20.13
2018-02-07T15:58:27.696Z,23.00
2018-02-07T16:01:00.540Z,23.57
2018-02-07T16:03:28.226Z,25.90
2018-02-07T16:06:17.080Z,22.33
2018-02-07T16:08:44.771Z,25.70
2018-02-07T16:13:51.851Z,38.93
2018-02-07T16:16:19.368Z,32.47
2018-02-07T16:18:46.897Z,32.87
2018-02-07T16:21:14.480Z,35.33
2018-02-07T16:23:48.260Z,35.53
2018-02-07T16:26:34.098Z,38.47
2018-02-07T16:29:01.635Z,34.87
2018-02-07T16:31:29.197Z,29.70
2018-02-07T16:33:57.295Z,35.73
2018-02-07T16:36:25.154Z,28.20
2018-02-07T16:38:52.855Z,32.93
2018-02-07T16:41:20.475Z,30.73
2018-02-07T16:46:39.719Z,30.97
2018-02-07T16:49:22.839Z,29.20
2018-02-07T16:51:50.393Z,28.13
2018-02-07T16:57:04.016Z,29.53
2018-02-07T16:59:31.568Z,30.60
2018-02-07T17:01:59.237Z,32.17
2018-02-07T17:04:28.128Z,32.50
2018-02-07T17:06:59.154Z,31.20
2018-02-07T17:09:26.743Z,28.20
2018-02-07T17:12:06.772Z,33.13
2018-02-07T17:14:34.583Z,28.40
2018-02-07T17:17:02.174Z,26.30
2018-02-07T17:19:29.816Z,30.60
2018-02-07T17:21:57.526Z,34.60
2018-02-07T17:24:25.050Z,31.30
2018-02-07T17:26:55.662Z,34.30
2018-02-07T17:29:23.679Z,41.23
2018-02-07T17:31:52.817Z,33.60
2018-02-07T17:34:20.483Z,34.60
2018-02-07T17:36:48.017Z,36.27
2018-02-07T17:41:50.249Z,33.30
2018-02-07T17:44:38.656Z,39.33
2018-02-07T17:47:06.240Z,31.23
2018-02-07T17:49:46.264Z,34.93
2018-02-07T17:52:13.791Z,35.03
2018-02-07T17:54:44.673Z,37.10
2018-02-07T17:57:12.292Z,32.00
2018-02-07T18:00:04.571Z,34.80
2018-02-07T18:02:32.477Z,31.43
2018-02-07T18:05:00.066Z,35.90
2018-02-07T18:07:27.603Z,35.40
2018-02-07T18:09:55.178Z,30.90
2018-02-07T18:12:22.750Z,32.13
2018-02-07T18:14:50.457Z,29.83
2018-02-07T18:17:18.193Z,25.23
2018-02-07T18:19:45.996Z,37.23
2018-02-07T18:22:15.659Z,40.07
2018-02-07T18:24:43.258Z,32.05
2018-02-07T18:27:10.856Z,35.83
2018-02-07T18:29:38.413Z,32.00
2018-02-07T18:32:06.024Z,23.47
2018-02-07T18:34:34.939Z,24.23
2018-02-07T18:37:02.837Z,34.70
2018-02-07T18:39:30.518Z,29.10
2018-02-07T18:41:58.871Z,23.70
2018-02-07T18:44:26.701Z,26.63
2018-02-07T18:46:54.374Z,28.47
2018-02-07T18:49:21.940Z,32.70
2018-02-07T18:51:49.569Z,33.73
2018-02-07T18:54:17.604Z,32.40
2018-02-07T18:56:45.164Z,29.00
2018-02-07T18:59:12.709Z,33.53
2018-02-07T19:01:40.287Z,32.73
2018-02-07T19:04:07.810Z,31.97
2018-02-07T19:06:35.999Z,33.13
2018-02-07T19:09:03.593Z,24.30
2018-02-07T19:11:31.208Z,34.73
2018-02-07T19:13:58.747Z,36.80
2018-02-07T19:16:26.303Z,34.43
2018-02-07T19:18:54.633Z,37.80
2018-02-07T19:21:22.202Z,37.60
2018-02-07T19:23:49.948Z,30.30
2018-02-07T19:26:18.842Z,30.70
2018-02-07T19:28:46.409Z,30.83
2018-02-07T19:31:14.327Z,32.43
2018-02-07T19:33:42.975Z,31.45
2018-02-07T19:36:11.591Z,40.03
2018-02-07T19:38:41.846Z,35.03
2018-02-07T19:41:09.649Z,36.28
2018-02-07T19:43:37.295Z,33.42
2018-02-07T19:46:05.123Z,35.63
2018-02-07T19:48:32.842Z,32.23
2018-02-07T19:51:01.100Z,32.40
2018-02-07T19:53:28.931Z,45.57
2018-02-07T19:55:57.391Z,33.20
2018-02-07T19:58:24.959Z,32.05
2018-02-07T20:00:52.563Z,33.57
2018-02-07T20:03:20.800Z,36.17
2018-02-07T20:05:48.335Z,33.75
2018-02-07T20:08:16.104Z,34.80
2018-02-07T20:10:43.706Z,30.03
2018-02-07T20:13:11.294Z,38.00
2018-02-07T20:15:39.069Z,35.63
2018-02-07T20:18:08.707Z,31.57
2018-02-07T20:20:37.112Z,27.60
2018-02-07T20:23:04.965Z,33.33
2018-02-07T20:25:32.847Z,34.17
2018-02-07T20:28:00.533Z,32.17
2018-02-07T20:30:28.375Z,32.40
2018-02-07T20:32:56.741Z,31.03
2018-02-07T20:35:24.627Z,26.60
2018-02-07T20:37:54.494Z,23.33
2018-02-07T20:40:22.893Z,31.80
2018-02-07T20:42:51.762Z,27.00
2018-02-07T20:45:19.690Z,26.20
2018-02-07T20:47:47.720Z,23.80
2018-02-07T20:50:15.814Z,22.37
2018-02-07T20:52:45.465Z,25.53
2018-02-07T20:55:13.659Z,25.53
2018-02-07T20:57:41.364Z,20.45
2018-02-07T21:00:10.325Z,28.80
2018-02-07T21:02:44.561Z,22.63
2018-02-07T21:05:13.254Z,31.87
2018-02-07T21:07:41.125Z,26.00
2018-02-07T21:10:09.128Z,34.00
2018-02-07T21:12:37.135Z,31.67
2018-02-07T21:15:05.185Z,26.97
2018-02-07T21:17:33.539Z,29.27
2018-02-07T21:20:01.265Z,32.80
2018-02-07T21:22:29.380Z,33.17
2018-02-07T21:24:57.150Z,31.42
2018-02-07T21:27:24.868Z,26.87
2018-02-07T21:29:52.400Z,35.07
2018-02-07T21:32:19.982Z,32.55
2018-02-07T21:34:47.510Z,33.07
2018-02-07T21:37:15.023Z,34.90
2018-02-07T21:39:42.583Z,35.10
2018-02-07T21:42:10.341Z,34.40
2018-02-07T21:44:37.873Z,33.43
2018-02-07T21:47:05.715Z,27.57
2018-02-07T21:49:33.264Z,29.47
2018-02-07T21:52:00.794Z,28.10
2018-02-07T21:54:28.360Z,31.03
2018-02-07T21:56:55.871Z,30.90
2018-02-07T21:59:23.654Z,28.43
2018-02-07T22:01:51.216Z,30.90
2018-02-07T22:04:19.523Z,36.28
2018-02-07T22:06:47.076Z,30.70
2018-02-07T22:09:14.776Z,43.47
2018-02-07T22:11:42.311Z,29.83
2018-02-07T22:14:09.848Z,30.70
2018-02-07T22:16:42.549Z,29.47
2018-02-07T22:19:13.384Z,33.30
2018-02-07T22:21:40.921Z,30.63
2018-02-07T22:24:08.657Z,31.10
2018-02-07T22:26:36.179Z,37.60
2018-02-07T22:29:03.736Z,32.77
2018-02-07T22:31:31.584Z,31.17
2018-02-07T22:33:59.176Z,37.92
2018-02-07T22:36:26.958Z,26.00
2018-02-07T22:38:54.514Z,33.60
2018-02-07T22:41:22.406Z,30.77
2018-02-07T22:43:49.962Z,28.43
2018-02-07T22:46:17.526Z,23.80
2018-02-07T22:48:45.051Z,25.17
2018-02-07T22:51:12.584Z,27.17
2018-02-07T22:53:40.512Z,25.83
2018-02-07T22:56:08.048Z,27.50
2018-02-07T22:58:35.565Z,29.87
2018-02-07T23:01:03.331Z,34.23
2018-02-07T23:03:30.861Z,39.70
2018-02-07T23:05:58.573Z,40.10
2018-02-07T23:08:26.131Z,35.77
2018-02-07T23:10:53.674Z,32.23
2018-02-07T23:13:21.208Z,31.30
2018-02-07T23:15:48.763Z,28.23
2018-02-07T23:18:16.283Z,27.10
2018-02-07T23:20:44.074Z,30.50
2018-02-07T23:23:11.653Z,37.60
2018-02-07T23:25:39.572Z,29.80
2018-02-07T23:28:07.227Z,27.43
2018-02-07T23:30:35.063Z,35.58
2018-02-07T23:33:02.865Z,31.45
2018-02-07T23:35:30.407Z,25.30
2018-02-07T23:37:57.946Z,32.20
2018-02-07T23:40:25.526Z,39.70
2018-02-07T23:42:53.186Z,29.92
2018-02-07T23:45:20.779Z,35.80
2018-02-07T23:47:48.303Z,37.20
2018-02-07T23:50:16.216Z,42.47
2018-02-07T23:52:43.756Z,35.37
2018-02-07T23:55:11.268Z,34.60
2018-02-07T23:57:38.805Z,38.50
